Terminal Aerodrome Forecast
Issued by NWS

Home | Current Version | Previous Version | Text Only | Print | Product List | Glossary On
Versions: 1 2 3 4 5 6 7 8 9 10 11 12 13 14 15 16 17 18 19 20 21 22 23 24 25 26
000
FTUS46 KEKA 301100
TAFCEC
TAF
KCEC 301125Z 3012/3112 18005KT 1/2SM FG VV002
     FM301400 18006KT 2SM BR OVC002
     FM301700 22006KT 6SM BR OVC004
     FM301900 26006KT P6SM SCT009
     FM302200 31008KT P6SM SCT009
     FM310100 33005KT P6SM OVC006=

USA.gov is the U.S. government's official web portal to all federal, state and local government web resources and services.